Liberty Township, Ohio
Current Conditions -  °F | °C
As of 1:53 PM on Thursday 30 Oct 2014 (Local Time) from KMGY Reporting Station
Broken Clouds Broken Clouds  
Wind Chill: 50°   Ceiling: 3800
Heat Index: 50°   Visibility: 10mi
Dew Point: 33°   Wind: 6mph
Humidity: 52%   Direction: NA
Pressure: 30.11"   Gusts: NA
Location:  39.4452°N, 84.2185°W
Report Text: KMGY 301753Z AUTO VRB05KT 10SM BKN038 10/01 A3011 RMK AO2 SLP199 T01000006 10106 20056 58014
Loading
Personal Weather Stations






























Interactive Weather Map
Tropical Storm Tracking
New forecast layout! Learn more

10-Day Weather Forecast

Advertisements
Track Severe Weather on mobile